createdAt,value
2018-11-02T00:01:58.222Z,77.50
2018-11-02T00:04:26.701Z,77.10
2018-11-02T00:06:56.115Z,77.90
2018-11-02T00:09:40.214Z,79.70
2018-11-02T00:12:09.578Z,79.70
2018-11-02T00:14:37.966Z,80.20
2018-11-02T00:17:06.691Z,80.80
2018-11-02T00:19:35.420Z,80.80
2018-11-02T00:22:05.112Z,81.10
2018-11-02T00:24:33.683Z,79.60
2018-11-02T00:27:02.369Z,79.50
2018-11-02T00:29:32.466Z,80.10
2018-11-02T00:32:00.989Z,80.10
2018-11-02T00:34:29.503Z,79.50
2018-11-02T00:36:57.965Z,80.00
2018-11-02T00:39:26.706Z,78.80
2018-11-02T00:41:55.661Z,79.30
2018-11-02T00:44:24.088Z,78.80
2018-11-02T00:46:53.035Z,79.30
2018-11-02T00:49:22.435Z,78.00
2018-11-02T00:51:50.832Z,78.00
2018-11-02T00:54:23.001Z,76.80
2018-11-02T00:56:51.871Z,77.40
2018-11-02T00:59:20.501Z,77.10
2018-11-02T01:04:17.295Z,76.20
2018-11-02T01:06:46.032Z,75.80
2018-11-02T01:09:14.979Z,75.30
2018-11-02T01:14:11.948Z,74.90
2018-11-02T01:16:41.304Z,75.10
2018-11-02T01:19:10.359Z,75.30
2018-11-02T01:21:39.134Z,75.70
2018-11-02T01:24:07.829Z,75.80
2018-11-02T01:26:36.272Z,76.30
2018-11-02T01:29:04.639Z,76.30
2018-11-02T01:31:34.084Z,76.40
2018-11-02T01:34:02.903Z,76.40
2018-11-02T01:36:31.404Z,75.80
2018-11-02T01:39:00.123Z,76.50
2018-11-02T01:41:30.677Z,76.50
2018-11-02T01:44:00.089Z,76.80
2018-11-02T01:46:29.228Z,76.50
2018-11-02T01:48:57.659Z,76.40
2018-11-02T01:51:26.180Z,76.30
2018-11-02T01:53:54.872Z,76.20
2018-11-02T01:56:23.232Z,76.50
2018-11-02T01:58:51.751Z,76.60
2018-11-02T02:01:20.968Z,76.70
2018-11-02T02:03:49.347Z,75.80
2018-11-02T02:06:17.767Z,76.30
2018-11-02T02:08:46.516Z,76.30
2018-11-02T02:11:14.961Z,76.20
2018-11-02T02:13:44.139Z,76.50
2018-11-02T02:16:12.539Z,76.60
2018-11-02T02:18:40.848Z,76.70
2018-11-02T02:21:09.195Z,76.80
2018-11-02T02:23:37.853Z,77.20
2018-11-02T02:26:07.735Z,77.10
2018-11-02T02:28:36.381Z,77.40
2018-11-02T02:31:04.889Z,77.70
2018-11-02T02:33:34.228Z,78.00
2018-11-02T02:36:02.751Z,78.20
2018-11-02T02:38:31.295Z,78.00
2018-11-02T02:40:59.936Z,78.00
2018-11-02T02:43:28.351Z,78.00
2018-11-02T02:45:56.755Z,78.40
2018-11-02T02:48:25.250Z,78.60
2018-11-02T02:50:53.550Z,78.90
2018-11-02T02:53:22.278Z,78.30
2018-11-02T02:55:52.077Z,78.30
2018-11-02T02:58:20.458Z,78.70
2018-11-02T03:00:48.911Z,78.80
2018-11-02T03:03:17.331Z,77.90
2018-11-02T03:05:46.010Z,77.10
2018-11-02T03:08:15.198Z,76.90
2018-11-02T03:10:43.732Z,76.60
2018-11-02T03:13:12.127Z,75.70
2018-11-02T03:15:40.810Z,74.10
2018-11-02T03:18:09.190Z,74.70
2018-11-02T03:20:37.603Z,74.40
2018-11-02T03:23:06.083Z,73.70
2018-11-02T03:25:34.685Z,73.40
2018-11-02T03:28:03.032Z,73.40
2018-11-02T03:30:32.204Z,73.00
2018-11-02T03:33:00.613Z,73.60
2018-11-02T03:35:29.100Z,72.40
2018-11-02T03:37:57.445Z,72.10
2018-11-02T03:40:25.863Z,72.90
2018-11-02T03:42:54.303Z,72.20
2018-11-02T03:45:23.026Z,72.10
2018-11-02T03:47:51.613Z,72.30
2018-11-02T03:50:19.966Z,72.40
2018-11-02T03:52:48.428Z,72.50
2018-11-02T03:55:17.095Z,72.80
2018-11-02T03:57:45.827Z,73.20
2018-11-02T04:00:14.943Z,73.60
2018-11-02T04:02:43.316Z,74.20
2018-11-02T04:05:11.959Z,74.70
2018-11-02T04:07:40.514Z,75.70
2018-11-02T04:10:10.099Z,76.60
2018-11-02T04:15:19.469Z,76.30
2018-11-02T04:17:47.857Z,77.40
2018-11-02T04:20:16.270Z,78.00
2018-11-02T04:22:44.835Z,78.80
2018-11-02T04:25:13.303Z,77.50
2018-11-02T04:27:42.502Z,77.20
2018-11-02T04:30:11.014Z,76.90
2018-11-02T04:32:39.612Z,77.50
2018-11-02T04:35:09.016Z,79.10
2018-11-02T04:37:37.675Z,78.70
2018-11-02T04:40:08.022Z,79.70
2018-11-02T04:42:36.674Z,79.00
2018-11-02T04:45:05.492Z,78.00
2018-11-02T04:47:33.875Z,78.30
2018-11-02T04:50:02.859Z,78.40
2018-11-02T04:52:31.836Z,79.90
2018-11-02T04:55:00.675Z,80.20
2018-11-02T04:57:29.301Z,79.70
2018-11-02T04:59:58.173Z,79.70
2018-11-02T05:02:27.257Z,79.80
2018-11-02T05:04:56.308Z,79.70
2018-11-02T05:07:25.773Z,79.10
2018-11-02T05:09:54.471Z,77.60
2018-11-02T05:14:52.210Z,79.20
2018-11-02T05:19:49.544Z,78.00
2018-11-02T05:22:18.076Z,78.40
2018-11-02T05:24:46.781Z,79.30
2018-11-02T05:27:15.757Z,79.20
2018-11-02T05:29:44.551Z,79.80
2018-11-02T05:32:13.198Z,78.00
2018-11-02T05:34:41.858Z,78.90
2018-11-02T05:37:10.439Z,79.20
2018-11-02T05:39:39.122Z,79.30
2018-11-02T05:42:07.703Z,79.20
2018-11-02T05:44:36.470Z,79.70
2018-11-02T05:47:06.068Z,78.90
2018-11-02T05:49:35.211Z,77.20
2018-11-02T05:52:04.590Z,77.30
2018-11-02T05:54:33.791Z,76.80
2018-11-02T05:57:02.327Z,77.20
2018-11-02T05:59:30.891Z,78.10
2018-11-02T06:01:59.482Z,79.50
2018-11-02T06:04:29.468Z,79.40
2018-11-02T06:06:57.799Z,80.70
2018-11-02T06:09:26.435Z,79.50
2018-11-02T06:11:54.946Z,80.00
2018-11-02T06:14:23.600Z,80.60
2018-11-02T06:16:52.378Z,79.70
2018-11-02T06:19:21.216Z,78.40
2018-11-02T06:21:50.349Z,78.90
2018-11-02T06:24:19.811Z,78.70
2018-11-02T06:26:48.523Z,78.40
2018-11-02T06:29:17.281Z,78.40
2018-11-02T06:31:45.680Z,78.80
2018-11-02T06:34:14.411Z,78.90
2018-11-02T06:36:42.834Z,78.80
2018-11-02T06:41:40.706Z,78.80
2018-11-02T06:44:09.563Z,78.90
2018-11-02T06:46:37.888Z,79.50
2018-11-02T06:49:07.207Z,79.10
2018-11-02T06:51:35.954Z,79.10
2018-11-02T06:54:04.581Z,79.80
2018-11-02T06:56:33.104Z,79.20
2018-11-02T06:59:01.921Z,78.90
2018-11-02T07:01:30.361Z,79.30
2018-11-02T07:03:58.711Z,77.90
2018-11-02T07:06:27.479Z,78.20
2018-11-02T07:08:56.587Z,78.60
2018-11-02T07:11:25.555Z,79.10
2018-11-02T07:13:55.560Z,79.60
2018-11-02T07:18:53.473Z,79.10
2018-11-02T07:21:22.124Z,79.40
2018-11-02T07:23:50.546Z,79.10
2018-11-02T07:26:18.872Z,76.40
2018-11-02T07:31:17.189Z,76.70
2018-11-02T07:33:45.591Z,77.30
2018-11-02T07:36:13.976Z,75.60
2018-11-02T07:38:42.579Z,75.30
2018-11-02T07:41:11.153Z,75.50
2018-11-02T07:43:39.911Z,75.90
2018-11-02T07:46:08.609Z,75.40
2018-11-02T07:48:37.351Z,75.80
2018-11-02T07:51:05.918Z,75.90
2018-11-02T07:53:34.291Z,74.80
2018-11-02T07:56:05.897Z,75.40
2018-11-02T07:58:34.935Z,75.20
2018-11-02T08:01:03.731Z,75.50
2018-11-02T08:03:32.123Z,74.70
2018-11-02T08:06:00.861Z,73.90
2018-11-02T08:08:29.895Z,73.70
2018-11-02T08:10:58.321Z,73.10
2018-11-02T08:13:26.996Z,72.30
2018-11-02T08:15:56.175Z,72.00
2018-11-02T08:18:25.162Z,71.90
2018-11-02T08:20:53.568Z,70.70
2018-11-02T08:23:22.304Z,70.80
2018-11-02T08:25:50.710Z,71.00
2018-11-02T08:28:19.192Z,70.30
2018-11-02T08:30:47.828Z,68.40
2018-11-02T08:33:16.340Z,67.10
2018-11-02T08:35:44.737Z,67.60
2018-11-02T08:41:30.257Z,66.00
2018-11-02T08:43:58.823Z,66.80
2018-11-02T08:46:27.512Z,67.30
2018-11-02T08:48:57.237Z,66.70
2018-11-02T08:51:25.658Z,66.90
2018-11-02T08:53:54.068Z,66.40
2018-11-02T08:56:22.532Z,66.90
2018-11-02T08:58:51.907Z,66.50
2018-11-02T09:01:20.463Z,66.30
2018-11-02T09:03:49.057Z,64.50
2018-11-02T09:06:17.565Z,63.90
2018-11-02T09:08:46.489Z,63.80
2018-11-02T09:11:14.956Z,63.90
2018-11-02T09:13:43.808Z,62.50
2018-11-02T09:16:12.224Z,62.90
2018-11-02T09:18:41.207Z,62.70
2018-11-02T09:21:10.042Z,62.60
2018-11-02T09:23:41.596Z,62.80
2018-11-02T09:26:10.066Z,62.10
2018-11-02T09:28:38.462Z,62.00
2018-11-02T09:31:07.037Z,62.10
2018-11-02T09:33:35.726Z,62.00
2018-11-02T09:36:04.685Z,61.00
2018-11-02T09:38:33.068Z,61.50
2018-11-02T09:41:01.789Z,60.00
2018-11-02T09:43:30.474Z,59.70
2018-11-02T09:45:58.938Z,59.90
2018-11-02T09:48:27.353Z,60.50
2018-11-02T09:50:57.026Z,60.60
2018-11-02T09:53:25.843Z,60.20
2018-11-02T09:55:54.295Z,59.10
2018-11-02T09:58:22.807Z,58.40
2018-11-02T10:00:51.298Z,58.80
2018-11-02T10:03:20.459Z,59.30
2018-11-02T10:05:48.865Z,58.70
2018-11-02T10:08:17.357Z,59.10
2018-11-02T10:10:46.225Z,60.00
2018-11-02T10:13:14.718Z,59.10
2018-11-02T10:15:44.999Z,59.60
2018-11-02T10:18:13.747Z,59.50
2018-11-02T10:20:42.176Z,60.10
2018-11-02T10:23:10.651Z,59.20
2018-11-02T10:25:39.910Z,59.90
2018-11-02T10:28:08.685Z,57.80
2018-11-02T10:30:38.076Z,58.00
2018-11-02T10:33:06.866Z,58.70
2018-11-02T10:35:35.469Z,57.80
2018-11-02T10:38:04.275Z,58.20
2018-11-02T10:40:35.245Z,58.00
2018-11-02T10:43:09.285Z,58.20
2018-11-02T10:45:41.992Z,58.10
2018-11-02T10:48:10.337Z,57.40
2018-11-02T10:50:38.711Z,57.90
2018-11-02T10:53:07.504Z,58.70
2018-11-02T10:55:35.907Z,58.80
2018-11-02T10:58:06.102Z,59.20
2018-11-02T11:00:40.385Z,58.80
2018-11-02T11:03:09.131Z,58.10
2018-11-02T11:05:37.884Z,57.90
2018-11-02T11:08:06.508Z,57.20
2018-11-02T11:10:35.222Z,57.80
2018-11-02T11:13:04.527Z,57.50
2018-11-02T11:15:33.653Z,57.40
2018-11-02T11:18:03.281Z,56.50
2018-11-02T11:20:31.738Z,56.70
2018-11-02T11:23:00.118Z,57.20
2018-11-02T11:25:29.213Z,56.30
2018-11-02T11:27:58.132Z,56.00
2018-11-02T11:30:26.554Z,55.60
2018-11-02T11:32:55.005Z,55.70
2018-11-02T11:35:23.432Z,56.10
2018-11-02T11:37:52.044Z,56.30
2018-11-02T11:40:22.135Z,56.10
2018-11-02T11:42:50.510Z,56.40
2018-11-02T11:45:20.103Z,56.10
2018-11-02T11:47:49.133Z,55.20
2018-11-02T11:50:20.368Z,55.50
2018-11-02T11:52:49.851Z,54.00
2018-11-02T11:55:18.569Z,54.60
2018-11-02T11:57:47.364Z,54.40
2018-11-02T12:00:20.297Z,55.00
2018-11-02T12:02:49.404Z,54.80
2018-11-02T12:07:56.952Z,54.10
2018-11-02T12:10:26.297Z,54.50
2018-11-02T12:12:54.710Z,54.00
2018-11-02T12:15:24.108Z,54.50
2018-11-02T12:17:52.776Z,54.90
2018-11-02T12:20:27.129Z,54.40
2018-11-02T12:22:58.943Z,54.20
2018-11-02T12:25:27.880Z,54.50
2018-11-02T12:27:56.341Z,53.30
2018-11-02T12:30:24.821Z,53.50
2018-11-02T12:32:53.233Z,53.30
2018-11-02T12:35:22.765Z,53.30
2018-11-02T12:37:51.208Z,54.20
2018-11-02T12:40:21.606Z,54.00
2018-11-02T12:42:51.029Z,54.00
2018-11-02T12:45:20.397Z,54.30
2018-11-02T12:47:49.521Z,54.20
2018-11-02T12:50:21.644Z,54.20
2018-11-02T12:52:51.085Z,54.50
2018-11-02T12:55:20.700Z,54.90
2018-11-02T12:57:49.528Z,55.10
2018-11-02T13:00:20.296Z,56.40
2018-11-02T13:02:50.109Z,55.40
2018-11-02T13:05:18.640Z,55.80
2018-11-02T13:07:47.067Z,56.00
2018-11-02T13:10:16.904Z,56.30
2018-11-02T13:12:45.911Z,56.00
2018-11-02T13:15:16.662Z,56.50
2018-11-02T13:17:46.060Z,56.40
2018-11-02T13:20:14.811Z,56.10
2018-11-02T13:22:44.298Z,56.30
2018-11-02T13:25:13.878Z,57.20
2018-11-02T13:27:42.876Z,56.50
2018-11-02T13:32:43.223Z,55.80
2018-11-02T13:35:14.495Z,56.40
2018-11-02T13:37:44.121Z,57.40
2018-11-02T13:40:13.809Z,57.60
2018-11-02T13:42:43.210Z,56.90
2018-11-02T13:45:12.885Z,57.00
2018-11-02T13:47:41.808Z,57.30
2018-11-02T13:50:10.850Z,58.10
2018-11-02T13:52:39.727Z,57.60
2018-11-02T13:55:09.461Z,57.60
2018-11-02T13:57:38.190Z,56.50
2018-11-02T14:00:09.475Z,57.00
2018-11-02T14:02:39.380Z,56.90
2018-11-02T14:05:10.658Z,57.60
2018-11-02T14:07:39.225Z,57.40
2018-11-02T14:10:10.085Z,58.10
2018-11-02T14:12:39.324Z,57.80
2018-11-02T14:15:11.226Z,57.10
2018-11-02T14:17:40.936Z,57.40
2018-11-02T14:20:10.909Z,57.40
2018-11-02T14:22:39.505Z,57.60
2018-11-02T14:25:11.301Z,57.80
2018-11-02T14:27:40.250Z,58.00
2018-11-02T14:30:11.925Z,58.40
2018-11-02T14:32:40.614Z,57.60
2018-11-02T14:35:09.725Z,57.30
2018-11-02T14:37:38.955Z,57.70
2018-11-02T14:40:08.802Z,57.20
2018-11-02T14:42:38.364Z,56.70
2018-11-02T14:45:09.553Z,56.80
2018-11-02T14:47:38.631Z,57.40
2018-11-02T14:50:08.520Z,58.30
2018-11-02T14:52:37.363Z,57.80
2018-11-02T14:55:07.160Z,58.40
2018-11-02T14:57:35.990Z,58.80
2018-11-02T15:00:06.215Z,58.60
2018-11-02T15:02:34.647Z,58.70
2018-11-02T15:05:03.046Z,57.90
2018-11-02T15:07:31.521Z,57.70
2018-11-02T15:09:59.945Z,57.50
2018-11-02T15:12:28.856Z,56.90
2018-11-02T15:14:57.605Z,57.50
2018-11-02T15:17:26.395Z,56.90
2018-11-02T15:19:55.095Z,57.20
2018-11-02T15:22:23.696Z,56.70
2018-11-02T15:24:52.164Z,57.20
2018-11-02T15:27:20.590Z,57.60
2018-11-02T15:29:49.295Z,58.10
2018-11-02T15:32:17.764Z,58.80
2018-11-02T15:34:46.465Z,58.50
2018-11-02T15:37:14.847Z,58.60
2018-11-02T15:39:44.031Z,59.00
2018-11-02T15:42:12.381Z,59.10
2018-11-02T15:44:41.116Z,59.50
2018-11-02T15:47:09.741Z,60.00
2018-11-02T15:49:38.142Z,59.40
2018-11-02T15:52:06.621Z,60.00
2018-11-02T15:54:34.978Z,60.40
2018-11-02T15:57:03.925Z,60.10
2018-11-02T15:59:32.292Z,60.20
2018-11-02T16:02:01.028Z,60.20
2018-11-02T16:04:29.399Z,60.80
2018-11-02T16:06:58.371Z,60.20
2018-11-02T16:09:26.706Z,60.80
2018-11-02T16:14:24.341Z,60.60
2018-11-02T16:16:53.942Z,60.70
2018-11-02T16:19:22.371Z,61.20
2018-11-02T16:21:51.113Z,61.60
2018-11-02T16:24:19.531Z,61.80
2018-11-02T16:26:49.352Z,62.20
2018-11-02T16:29:17.907Z,62.40
2018-11-02T16:31:46.869Z,62.50
2018-11-02T16:34:15.333Z,62.70
2018-11-02T16:36:43.981Z,62.90
2018-11-02T16:39:13.210Z,62.70
2018-11-02T16:41:42.281Z,63.40
2018-11-02T16:44:11.862Z,62.80
2018-11-02T16:46:40.486Z,63.50
2018-11-02T16:49:09.867Z,63.10
2018-11-02T16:51:38.365Z,63.50
2018-11-02T16:54:07.557Z,63.20
2018-11-02T16:56:35.954Z,63.80
2018-11-02T16:59:04.681Z,63.90
2018-11-02T17:01:33.138Z,63.90
2018-11-02T17:04:01.868Z,64.20
2018-11-02T17:06:31.705Z,64.70
2018-11-02T17:09:00.621Z,65.20
2018-11-02T17:11:29.103Z,66.50
2018-11-02T17:13:57.567Z,65.50
2018-11-02T17:16:26.066Z,65.90
2018-11-02T17:18:54.851Z,64.70
2018-11-02T17:21:23.216Z,65.20
2018-11-02T17:26:20.362Z,65.20
2018-11-02T17:28:48.876Z,65.80
2018-11-02T17:31:17.410Z,65.60
2018-11-02T17:33:45.964Z,66.20
2018-11-02T17:36:14.347Z,66.80
2018-11-02T17:38:42.755Z,67.40
2018-11-02T17:41:11.397Z,64.90
2018-11-02T17:43:41.054Z,65.30
2018-11-02T17:46:10.025Z,65.80
2018-11-02T17:48:38.696Z,65.90
2018-11-02T17:51:07.480Z,65.20
2018-11-02T17:53:36.684Z,65.80
2018-11-02T17:56:05.781Z,65.80
2018-11-02T17:58:34.464Z,65.10
2018-11-02T18:01:02.978Z,65.80
2018-11-02T18:06:00.368Z,65.30
2018-11-02T18:08:30.348Z,66.50
2018-11-02T18:10:59.690Z,67.10
2018-11-02T18:13:28.497Z,65.70
2018-11-02T18:15:58.287Z,66.20
2018-11-02T18:18:28.201Z,66.20
2018-11-02T18:20:57.395Z,66.50
2018-11-02T18:23:26.798Z,67.20
2018-11-02T18:25:55.308Z,66.60
2018-11-02T18:28:24.116Z,66.50
2018-11-02T18:30:53.800Z,67.10
2018-11-02T18:33:23.308Z,67.70
2018-11-02T18:35:52.092Z,67.50
2018-11-02T18:38:21.436Z,68.00
2018-11-02T18:40:50.270Z,67.90
2018-11-02T18:43:20.424Z,68.50
2018-11-02T18:45:48.984Z,68.80
2018-11-02T18:48:19.725Z,69.20
2018-11-02T18:50:49.096Z,68.80
2018-11-02T18:53:19.853Z,69.40
2018-11-02T18:55:49.099Z,69.70
2018-11-02T18:58:18.456Z,71.10
2018-11-02T19:00:47.105Z,70.30
2018-11-02T19:03:15.616Z,69.20
2018-11-02T19:05:46.581Z,69.70
2018-11-02T19:08:19.259Z,69.40
2018-11-02T19:10:48.268Z,69.40
2018-11-02T19:13:17.806Z,69.80
2018-11-02T19:15:47.744Z,69.30
2018-11-02T19:18:17.539Z,70.10
2018-11-02T19:20:46.981Z,70.20
2018-11-02T19:23:15.419Z,71.30
2018-11-02T19:25:44.739Z,69.70
2018-11-02T19:28:13.246Z,67.70
2018-11-02T19:30:42.944Z,68.20
2018-11-02T19:33:12.165Z,68.50
2018-11-02T19:35:42.705Z,68.40
2018-11-02T19:38:12.707Z,66.80
2018-11-02T19:40:41.991Z,67.40
2018-11-02T19:43:10.454Z,68.20
2018-11-02T19:45:39.880Z,69.00
2018-11-02T19:48:08.632Z,70.80
2018-11-02T19:50:37.411Z,68.40
2018-11-02T19:53:06.029Z,68.60
2018-11-02T19:55:34.419Z,69.50
2018-11-02T19:58:03.044Z,70.10
2018-11-02T20:00:32.024Z,70.30
2018-11-02T20:03:00.392Z,68.30
2018-11-02T20:05:28.860Z,69.00
2018-11-02T20:07:57.568Z,69.70
2018-11-02T20:10:26.525Z,70.90
2018-11-02T20:12:55.760Z,71.00
2018-11-02T20:15:24.103Z,72.40
2018-11-02T20:17:53.265Z,71.10
2018-11-02T20:20:22.097Z,68.90
2018-11-02T20:22:50.864Z,69.10
2018-11-02T20:25:19.516Z,67.20
2018-11-02T20:27:47.950Z,66.90
2018-11-02T20:30:18.788Z,67.50
2018-11-02T20:32:47.810Z,69.10
2018-11-02T20:35:16.548Z,70.20
2018-11-02T20:37:45.005Z,72.50
2018-11-02T20:40:16.024Z,70.80
2018-11-02T20:42:45.356Z,69.70
2018-11-02T20:45:14.313Z,69.80
2018-11-02T20:47:48.037Z,71.10
2018-11-02T20:50:17.364Z,70.90
2018-11-02T20:52:46.616Z,72.00
2018-11-02T20:55:16.562Z,72.20
2018-11-02T20:57:45.044Z,71.70
2018-11-02T21:00:19.484Z,72.10
2018-11-02T21:02:47.962Z,72.30
2018-11-02T21:05:17.938Z,74.70
2018-11-02T21:07:47.432Z,75.30
2018-11-02T21:10:17.423Z,77.40
2018-11-02T21:12:46.118Z,75.40
2018-11-02T21:15:16.559Z,75.60
2018-11-02T21:17:46.561Z,75.90
2018-11-02T21:20:17.161Z,76.60
2018-11-02T21:22:45.733Z,74.70
2018-11-02T21:25:14.926Z,75.40
2018-11-02T21:27:44.347Z,76.00
2018-11-02T21:30:17.852Z,74.50
2018-11-02T21:32:47.395Z,75.00
2018-11-02T21:35:16.832Z,76.30
2018-11-02T21:37:45.468Z,74.90
2018-11-02T21:40:15.983Z,75.90
2018-11-02T21:42:45.227Z,75.80
2018-11-02T21:45:15.157Z,76.80
2018-11-02T21:47:44.276Z,77.50
2018-11-02T21:50:13.310Z,77.90
2018-11-02T21:52:42.158Z,77.60
2018-11-02T21:55:11.204Z,78.70
2018-11-02T21:57:39.794Z,78.30
2018-11-02T22:00:14.747Z,78.80
2018-11-02T22:02:43.745Z,78.00
2018-11-02T22:05:13.435Z,78.60
2018-11-02T22:07:44.963Z,79.70
2018-11-02T22:10:14.479Z,79.20
2018-11-02T22:12:43.000Z,78.80
2018-11-02T22:15:12.137Z,79.60
2018-11-02T22:17:41.669Z,77.70
2018-11-02T22:20:11.779Z,77.50
2018-11-02T22:22:40.671Z,79.10
2018-11-02T22:25:10.611Z,75.20
2018-11-02T22:27:39.476Z,80.80
2018-11-02T22:30:12.036Z,79.70
2018-11-02T22:32:40.686Z,77.70
2018-11-02T22:35:09.913Z,78.10
2018-11-02T22:37:38.880Z,77.10
2018-11-02T22:40:09.037Z,77.50
2018-11-02T22:42:37.794Z,76.20
2018-11-02T22:45:07.305Z,75.80
2018-11-02T22:47:35.720Z,76.40
2018-11-02T22:50:05.128Z,76.80
2018-11-02T22:52:33.557Z,77.30
2018-11-02T22:55:02.108Z,77.80
2018-11-02T22:57:30.880Z,78.60
2018-11-02T22:59:59.693Z,79.10
2018-11-02T23:02:28.469Z,79.10
2018-11-02T23:06:00.779Z,79.10
2018-11-02T23:08:29.680Z,79.10
2018-11-02T23:10:58.093Z,78.20
2018-11-02T23:13:26.816Z,77.60
2018-11-02T23:15:55.692Z,78.00
2018-11-02T23:18:24.804Z,79.70
2018-11-02T23:20:53.680Z,79.40
2018-11-02T23:23:22.103Z,78.50
2018-11-02T23:25:51.432Z,78.00
2018-11-02T23:28:20.139Z,75.80
2018-11-02T23:30:48.573Z,76.80
2018-11-02T23:33:17.115Z,74.80
2018-11-02T23:35:47.207Z,74.20
2018-11-02T23:38:15.754Z,75.60
2018-11-02T23:40:44.181Z,75.40
2018-11-02T23:43:12.545Z,75.70
2018-11-02T23:45:41.278Z,74.70
2018-11-02T23:48:15.984Z,75.30
2018-11-02T23:50:45.035Z,75.50
2018-11-02T23:53:14.147Z,75.20
2018-11-02T23:55:43.772Z,75.20
2018-11-02T23:58:12.341Z,74.70
